Time;durP1;ratioP1;P1;durP2;ratioP2;P2;SDS_P1;SDS_P2;PMS_P1;PMS_P2;Temp;Humidity;BMP_temperature;BMP_pressure;BME280_temperature;BME280_humidity;BME280_pressure;Samples;Min_cycle;Max_cycle;Signal;HPM_P1;HPM_P2
2022/01/01 00:00:08;;;;;;;18.47;15.67;;;10.50;99.90;;;;;;5021569;28;20169;-58
2022/01/01 00:02:34;;;;;;;16.40;14.27;;;;;;;;;;5021371;28;20157;-58
2022/01/01 00:05:00;;;;;;;14.60;12.63;;;;;;;;;;5003894;28;20231;-57
2022/01/01 00:07:26;;;;;;;14.63;13.07;;;;;;;;;;5021314;28;20182;-58
2022/01/01 00:09:52;;;;;;;14.20;12.47;;;;;;;;;;5034055;28;20203;-58
2022/01/01 00:12:19;;;;;;;13.73;12.30;;;;;;;;;;5041096;28;20195;-59
2022/01/01 00:14:45;;;;;;;14.70;12.97;;;;;;;;;;5040327;28;20189;-59
2022/01/01 00:17:11;;;;;;;13.67;11.17;;;;;;;;;;5040864;28;20295;-57
2022/01/01 00:19:38;;;;;;;12.87;11.47;;;;;;;;;;5040962;28;20227;-57
2022/01/01 00:22:06;;;;;;;13.93;11.87;;;;;;;;;;5040664;28;20187;-57
2022/01/01 00:24:33;;;;;;;14.70;11.60;;;10.70;99.90;;;;;;5040237;28;20267;-55
2022/01/01 00:26:59;;;;;;;16.17;13.17;;;;;;;;;;5023552;28;20169;-58
2022/01/01 00:29:25;;;;;;;14.43;12.83;;;;;;;;;;5040860;28;20220;-56
2022/01/01 00:31:51;;;;;;;14.87;12.93;;;;;;;;;;5040213;28;20261;-56
2022/01/01 00:34:32;;;;;;;14.03;12.23;;;10.50;99.90;;;;;;5053401;23;20231;-92
2022/01/01 00:36:58;;;;;;;13.80;12.37;;;;;;;;;;5044816;28;20635;-92
2022/01/01 00:39:25;;;;;;;15.17;13.47;;;10.50;99.90;;;;;;5054709;28;20171;-92
2022/01/01 00:41:51;;;;;;;11.83;10.63;;;;;;;;;;5055348;28;20179;-91
2022/01/01 00:44:18;;;;;;;12.80;10.97;;;10.60;99.90;;;;;;5054382;28;20179;-92
2022/01/01 00:46:44;;;;;;;11.43;10.23;;;;;;;;;;5055668;28;20179;-92
2022/01/01 00:49:10;;;;;;;11.37;9.60;;;;;;;;;;5056254;28;20523;-92
2022/01/01 00:51:36;;;;;;;12.33;9.93;;;;;;;;;;5055789;28;20218;-92
2022/01/01 00:54:02;;;;;;;11.13;10.03;;;;;;;;;;5055011;28;20171;-92
2022/01/01 00:56:28;;;;;;;11.63;10.40;;;;;;;;;;5055474;28;20179;-92
2022/01/01 01:02:18;;;;;;;13.63;10.20;;;10.20;99.90;;;;;;5050210;28;20526;-91
2022/01/01 01:04:44;;;;;;;12.60;10.40;;;;;;;;;;5067712;28;20199;-91
2022/01/01 01:07:36;;;;;;;12.10;10.80;;;10.30;99.90;;;;;;5060544;28;20175;-91
2022/01/01 01:10:05;;;;;;;11.53;10.33;;;10.50;99.90;;;;;;5069634;28;20163;-91
2022/01/01 01:12:56;;;;;;;12.17;10.87;;;10.90;99.90;;;;;;5077145;28;20223;-90
2022/01/01 01:15:44;;;;;;;12.57;10.73;;;10.40;99.90;;;;;;5068773;28;20176;-91
2022/01/01 01:21:48;;;;;;;12.70;10.93;;;10.60;99.90;;;;;;5077497;28;20193;-90
2022/01/01 01:24:15;;;;;;;12.47;11.23;;;;;;;;;;5064539;28;20198;-91
2022/01/01 01:26:50;;;;;;;11.93;10.03;;;10.60;99.90;;;;;;5061147;28;20170;-90
2022/01/01 01:29:18;;;;;;;11.57;9.77;;;10.70;99.90;;;;;;5062129;28;20174;-92
2022/01/01 01:32:16;;;;;;;12.17;10.87;;;10.50;99.90;;;;;;5058812;28;20185;-91
2022/01/01 01:34:51;;;;;;;11.50;10.27;;;10.20;99.90;;;;;;5052864;28;20202;-90
2022/01/01 01:37:17;;;;;;;11.30;10.07;;;;;;;;;;5063223;28;20281;-91
2022/01/01 01:40:29;;;;;;;11.50;10.20;;;10.00;99.90;;;;;;5060188;28;20209;-90
2022/01/01 01:42:56;;;;;;;11.83;10.20;;;;;;;;;;5055599;28;20740;-91
2022/01/01 01:45:28;;;;;;;11.80;10.60;;;9.80;99.90;;;;;;5059337;28;20646;-91
2022/01/01 01:47:54;;;;;;;12.07;10.77;;;;;;;;;;5054484;28;20166;-92
2022/01/01 01:50:20;;;;;;;13.33;11.93;;;;;;;;;;5057637;28;20200;-90
2022/01/01 01:52:55;;;;;;;12.87;11.53;;;9.80;99.90;;;;;;5058038;28;20198;-91
2022/01/01 01:55:21;;;;;;;12.20;10.97;;;;;;;;;;5067403;28;20176;-91
2022/01/01 01:57:47;;;;;;;13.97;12.33;;;;;;;;;;5064114;28;20170;-91
2022/01/01 02:02:54;;;;;;;13.97;12.50;;;;;;;;;;5064192;28;20844;-91
2022/01/01 02:05:20;;;;;;;13.10;11.70;;;;;;;;;;5054838;28;20202;-92
2022/01/01 02:07:46;;;;;;;12.90;11.50;;;;;;;;;;5058252;28;20756;-91
2022/01/01 02:10:13;;;;;;;12.90;11.13;;;10.30;99.90;;;;;;5080755;28;20265;-92
2022/01/01 02:12:41;;;;;;;13.47;11.13;;;;;;;;;;5066905;28;20175;-91
2022/01/01 02:15:26;;;;;;;11.10;9.97;;;10.40;99.90;;;;;;5056580;28;20205;-92
2022/01/01 02:17:52;;;;;;;12.73;11.23;;;;;;;;;;5059563;28;20166;-92
2022/01/01 02:20:25;;;;;;;13.73;11.07;;;10.40;99.90;;;;;;5070420;28;20170;-90
2022/01/01 02:22:52;;;;;;;12.53;11.20;;;;;;;;;;5057906;28;20174;-91
2022/01/01 02:25:20;;;;;;;12.20;10.70;;;10.40;99.90;;;;;;5065372;28;20290;-92
2022/01/01 02:27:47;;;;;;;11.13;10.03;;;10.40;99.90;;;;;;5057541;28;20229;-92
2022/01/01 02:30:15;;;;;;;12.40;10.03;;;10.40;99.90;;;;;;5060637;28;20281;-91
2022/01/01 02:32:41;;;;;;;12.07;10.27;;;;;;;;;;5047924;28;20634;-92
2022/01/01 02:35:09;;;;;;;12.93;10.67;;;10.50;99.90;;;;;;5067712;28;20184;-92
2022/01/01 02:37:35;;;;;;;12.27;10.97;;;;;;;;;;5071469;28;20179;-91
2022/01/01 02:40:05;;;;;;;13.07;11.03;;;10.60;99.90;;;;;;5070868;28;20186;-91
2022/01/01 02:42:31;;;;;;;11.43;10.03;;;;;;;;;;5057374;28;20506;-91
2022/01/01 02:44:59;;;;;;;12.40;11.10;;;10.40;99.90;;;;;;5057121;28;20187;-91
2022/01/01 02:47:25;;;;;;;12.70;11.40;;;;;;;;;;5073898;28;20181;-90
2022/01/01 02:49:55;;;;;;;13.53;11.40;;;10.20;99.90;;;;;;5077249;28;20175;-91
2022/01/01 02:52:21;;;;;;;12.07;10.70;;;;;;;;;;5050860;28;20170;-92
2022/01/01 02:54:47;;;;;;;12.50;11.20;;;;;;;;;;5062498;28;20272;-92
2022/01/01 02:57:13;;;;;;;13.00;11.33;;;;;;;;;;5066415;28;20158;-90
2022/01/01 02:59:39;;;;;;;11.70;10.00;;;;;;;;;;5053099;28;20179;-92
2022/01/01 03:02:05;;;;;;;13.33;10.40;;;;;;;;;;5073246;28;20165;-90
2022/01/01 03:04:31;;;;;;;27.67;12.40;;;;;;;;;;5054277;28;20222;-91
2022/01/01 03:07:00;;;;;;;11.50;10.03;;;10.20;99.90;;;;;;5061650;28;20565;-92
2022/01/01 03:09:34;;;;;;;10.40;9.30;;;;;;;;;;5057631;28;20231;-92
2022/01/01 03:12:00;;;;;;;10.47;9.37;;;;;;;;;;5052587;28;20177;-91
2022/01/01 03:14:26;;;;;;;9.67;8.63;;;;;;;;;;5057368;28;20931;-90
2022/01/01 03:16:52;;;;;;;10.00;8.77;;;;;;;;;;5051175;28;20262;-91
2022/01/01 03:19:18;;;;;;;9.70;8.60;;;;;;;;;;5071859;28;20180;-91
2022/01/01 03:21:44;;;;;;;9.03;8.13;;;;;;;;;;5056717;28;20255;-91
2022/01/01 03:24:11;;;;;;;8.00;7.20;;;;;;;;;;5060194;28;20182;-94
2022/01/01 03:26:37;;;;;;;8.40;7.40;;;10.70;99.90;;;;;;5048452;28;20179;-92
2022/01/01 03:29:04;;;;;;;8.77;7.77;;;;;;;;;;5057578;28;20253;-89
2022/01/01 03:31:31;;;;;;;8.67;7.50;;;;;;;;;;5048837;28;20186;-90
2022/01/01 03:33:58;;;;;;;8.03;6.97;;;;;;;;;;5047377;28;20615;-90
2022/01/01 03:36:25;;;;;;;7.50;6.80;;;10.90;99.90;;;;;;5049742;28;20167;-89
2022/01/01 03:38:51;;;;;;;8.60;6.80;;;;;;;;;;5061694;28;20163;-91
2022/01/01 03:41:17;;;;;;;7.13;6.43;;;;;;;;;;5047911;28;20665;-90
2022/01/01 03:43:43;;;;;;;7.30;6.60;;;11.00;99.90;;;;;;5048752;28;20643;-93
2022/01/01 03:46:16;;;;;;;8.50;7.57;;;10.90;99.90;;;;;;5054502;28;20194;-92
2022/01/01 03:48:43;;;;;;;9.43;7.70;;;11.00;99.90;;;;;;5051909;28;20171;-90
2022/01/01 03:51:09;;;;;;;8.27;7.37;;;11.10;99.90;;;;;;5055867;28;20198;-92
2022/01/01 03:53:35;;;;;;;7.57;6.77;;;;;;;;;;5050209;28;20599;-89
2022/01/01 03:56:01;;;;;;;8.17;6.83;;;11.30;99.90;;;;;;5051123;28;20171;-92
2022/01/01 03:58:30;;;;;;;6.97;6.23;;;;;;;;;;5056556;28;20198;-91
2022/01/01 04:00:56;;;;;;;7.27;6.57;;;11.30;99.90;;;;;;5042284;28;20313;-90
2022/01/01 04:03:22;;;;;;;8.10;6.47;;;;;;;;;;5046225;28;20589;-89
2022/01/01 04:05:48;;;;;;;7.40;6.50;;;;;;;;;;5040619;28;20198;-89
2022/01/01 04:08:15;;;;;;;7.77;6.90;;;11.60;99.90;;;;;;5051862;28;20169;-91
2022/01/01 04:10:41;;;;;;;7.37;6.27;;;;;;;;;;5044742;28;20171;-89
2022/01/01 04:13:08;;;;;;;7.63;6.50;;;11.70;99.90;;;;;;5051416;28;20607;-89
2022/01/01 04:15:35;;;;;;;8.20;6.60;;;11.70;99.90;;;;;;5044026;28;20625;-89
2022/01/01 04:18:06;;;;;;;7.83;6.60;;;11.50;99.90;;;;;;5051210;28;20195;-89
2022/01/01 04:20:32;;;;;;;6.97;6.27;;;;;;;;;;5051840;28;20686;-89
2022/01/01 04:22:58;;;;;;;8.30;6.87;;;;;;;;;;5051784;28;20202;-89
2022/01/01 04:25:26;;;;;;;8.00;6.47;;;11.00;99.90;;;;;;5051595;28;20685;-90
2022/01/01 04:27:57;;;;;;;7.00;6.07;;;10.80;99.90;;;;;;5046601;28;20262;-89
2022/01/01 04:30:25;;;;;;;7.20;6.47;;;;;;;;;;5051860;28;20170;-89
2022/01/01 04:32:51;;;;;;;7.13;6.43;;;;;;;;;;5046400;28;20182;-90
2022/01/01 04:35:17;;;;;;;7.43;6.70;;;;;;;;;;5051439;28;20197;-89
2022/01/01 04:37:49;;;;;;;8.47;6.67;;;10.20;99.90;;;;;;5045476;28;20171;-89
2022/01/01 04:40:15;;;;;;;7.37;6.60;;;;;;;;;;5054993;28;20171;-89
2022/01/01 04:42:47;;;;;;;8.20;7.27;;;10.20;99.90;;;;;;5048615;28;20175;-89
2022/01/01 04:45:13;;;;;;;8.40;6.80;;;10.20;99.90;;;;;;5054906;28;20289;-90
2022/01/01 04:47:39;;;;;;;8.33;6.70;;;;;;;;;;5048285;28;20217;-89
2022/01/01 04:50:10;;;;;;;7.80;6.93;;;10.10;99.90;;;;;;5055323;28;20266;-89
2022/01/01 04:52:36;;;;;;;7.87;7.07;;;;;;;;;;5048190;28;20159;-88
2022/01/01 04:55:03;;;;;;;8.50;7.60;;;10.10;99.90;;;;;;5056653;28;20607;-89
2022/01/01 04:57:30;;;;;;;8.20;6.97;;;;;;;;;;5058126;28;20175;-90
2022/01/01 04:59:57;;;;;;;8.00;7.07;;;10.10;99.90;;;;;;5058273;28;20499;-89
2022/01/01 05:02:24;;;;;;;7.70;7.00;;;;;;;;;;5058307;28;20176;-88
2022/01/01 05:04:51;;;;;;;8.83;7.40;;;10.20;99.90;;;;;;5057962;28;20212;-88
2022/01/01 05:07:17;;;;;;;11.77;8.07;;;;;;;;;;5057972;28;20182;-89
2022/01/01 05:09:44;;;;;;;9.73;6.77;;;10.40;99.90;;;;;;5058093;28;20205;-90
2022/01/01 05:12:10;;;;;;;7.37;6.67;;;10.50;99.90;;;;;;5057969;28;20262;-91
2022/01/01 05:14:37;;;;;;;7.83;7.00;;;10.50;99.90;;;;;;5057841;28;20202;-90
2022/01/01 05:17:03;;;;;;;8.03;6.67;;;10.80;99.90;;;;;;5058100;28;20269;-89
2022/01/01 05:19:28;;;;;;;10.73;7.53;;;10.60;99.90;;;;;;5057922;28;20197;-89
2022/01/01 05:21:55;;;;;;;8.77;7.07;;;10.60;99.90;;;;;;5057545;28;20174;-89
2022/01/01 05:24:21;;;;;;;7.70;6.00;;;;;;;;;;5057183;28;20178;-90
2022/01/01 05:26:47;;;;;;;8.23;6.00;;;;;;;;;;5057341;28;20170;-89
2022/01/01 05:29:13;;;;;;;7.50;6.00;;;;;;;;;;5058351;28;20204;-89
2022/01/01 05:31:39;;;;;;;6.90;5.47;;;10.70;99.90;;;;;;5057583;28;20175;-89
2022/01/01 05:34:05;;;;;;;7.40;5.27;;;10.60;99.90;;;;;;5057360;28;20175;-89
2022/01/01 05:36:31;;;;;;;7.27;5.70;;;10.60;99.90;;;;;;5057673;28;20206;-88
2022/01/01 05:38:56;;;;;;;8.67;5.87;;;10.60;99.90;;;;;;5057577;28;20177;-89
2022/01/01 05:41:22;;;;;;;7.97;6.00;;;11.90;99.90;;;;;;5057598;28;20174;-90
2022/01/01 05:43:49;;;;;;;8.57;6.17;;;10.60;99.90;;;;;;5057329;28;20265;-89
2022/01/01 05:46:15;;;;;;;7.20;6.00;;;;;;;;;;5057493;28;20537;-92
2022/01/01 05:48:41;;;;;;;8.20;6.17;;;;;;;;;;5057830;28;20587;-90
2022/01/01 05:51:08;;;;;;;8.00;5.87;;;;;;;;;;5057065;28;20614;-89
2022/01/01 05:53:34;;;;;;;8.17;6.17;;;;;;;;;;5057559;28;20170;-90
2022/01/01 05:56:00;;;;;;;7.27;6.00;;;;;;;;;;5057526;28;20170;-91
2022/01/01 05:58:26;;;;;;;6.40;5.40;;;;;;;;;;5075167;28;20189;-89
2022/01/01 06:00:52;;;;;;;6.43;5.33;;;9.80;99.90;;;;;;5057548;28;20155;-91
2022/01/01 06:03:18;;;;;;;6.83;5.27;;;;;;;;;;5057557;28;20577;-90
2022/01/01 06:05:44;;;;;;;5.90;4.97;;;;;;;;;;5056494;28;20202;-90
2022/01/01 06:08:11;;;;;;;6.20;5.20;;;9.80;99.90;;;;;;5057050;28;20608;-90
2022/01/01 06:10:38;;;;;;;7.03;5.40;;;;;;;;;;5057370;28;20632;-90
2022/01/01 06:13:08;;;;;;;7.00;5.40;;;9.90;99.90;;;;;;5057137;28;20638;-90
2022/01/01 06:15:34;;;;;;;6.43;5.20;;;;;;;;;;5057089;28;20174;-90
2022/01/01 06:18:28;;;;;;;6.90;5.70;;;9.70;99.90;;;;;;5056718;28;20170;-94
2022/01/01 06:20:55;;;;;;;6.73;4.87;;;;;;;;;;5074734;28;20167;-90
2022/01/01 06:23:21;;;;;;;7.10;5.50;;;;;;;;;;5056699;28;20209;-91
2022/01/01 06:25:55;;;;;;;6.97;5.53;;;10.30;99.90;;;;;;5056834;28;20221;-90
2022/01/01 06:28:21;;;;;;;7.97;5.93;;;;;;;;;;5056649;28;20225;-92
2022/01/01 06:30:46;;;;;;;7.10;5.53;;;10.10;99.90;;;;;;5057161;28;20245;-89
2022/01/01 06:33:17;;;;;;;6.63;5.50;;;10.00;99.90;;;;;;5056744;28;20171;-90
2022/01/01 06:35:45;;;;;;;6.63;5.43;;;10.00;99.90;;;;;;5074192;28;20637;-89
2022/01/01 06:38:12;;;;;;;9.27;6.13;;;9.90;99.90;;;;;;5074463;23;20698;-62
2022/01/01 06:40:40;;;;;;;7.37;6.03;;;10.50;99.90;;;;;;5070978;28;20170;-59
2022/01/01 06:43:07;;;;;;;7.37;5.73;;;10.40;99.90;;;;;;5084005;28;20240;-64
2022/01/01 06:45:33;;;;;;;5.97;5.00;;;10.40;99.90;;;;;;5092098;28;20201;-61
2022/01/01 06:47:59;;;;;;;7.90;5.60;;;10.30;99.90;;;;;;5073698;28;20202;-63
2022/01/01 06:50:25;;;;;;;6.00;4.87;;;10.00;99.90;;;;;;5072135;28;20177;-62
2022/01/01 06:52:50;;;;;;;9.10;5.27;;;9.80;99.90;;;;;;5072222;28;20538;-62
2022/01/01 06:55:16;;;;;;;7.20;5.40;;;10.50;99.90;;;;;;5068903;28;20524;-62
2022/01/01 06:57:42;;;;;;;6.80;5.10;;;10.10;99.90;;;;;;5071988;28;20202;-63
2022/01/01 07:00:10;;;;;;;7.47;5.37;;;10.10;99.90;;;;;;5072056;28;20794;-63
2022/01/01 07:02:40;;;;;;;6.10;4.87;;;10.50;99.90;;;;;;5071617;28;20248;-61
2022/01/01 07:05:06;;;;;;;7.03;5.07;;;10.30;99.90;;;;;;5071763;28;20202;-59
2022/01/01 07:07:32;;;;;;;6.20;5.03;;;10.50;99.90;;;;;;5072011;28;20187;-61
2022/01/01 07:09:57;;;;;;;6.03;5.27;;;10.30;99.90;;;;;;5072133;28;20223;-61
2022/01/01 07:12:23;;;;;;;7.47;5.10;;;10.60;99.90;;;;;;5052146;28;20175;-60
2022/01/01 07:14:48;;;;;;;7.43;5.53;;;10.60;99.90;;;;;;5071496;28;20189;-57
2022/01/01 07:17:14;;;;;;;8.87;5.40;;;10.50;99.90;;;;;;5071595;28;20295;-61
2022/01/01 07:19:40;;;;;;;6.57;5.40;;;;;;;;;;5072095;28;20174;-62
2022/01/01 07:22:05;;;;;;;8.40;5.40;;;10.00;99.90;;;;;;5071606;28;20205;-58
2022/01/01 07:24:31;;;;;;;5.87;5.13;;;10.40;99.90;;;;;;5071565;28;20174;-57
2022/01/01 07:26:56;;;;;;;7.60;5.37;;;10.30;99.90;;;;;;5071654;28;20206;-57
2022/01/01 07:29:22;;;;;;;7.43;5.97;;;10.30;99.90;;;;;;5071779;28;20752;-62
2022/01/01 07:31:48;;;;;;;7.13;6.10;;;;;;;;;;5071684;28;20175;-57
2022/01/01 07:34:14;;;;;;;6.93;5.83;;;10.30;99.90;;;;;;5071510;28;20178;-60
2022/01/01 07:36:39;;;;;;;6.60;5.63;;;11.00;99.90;;;;;;5071690;28;20209;-59
2022/01/01 07:39:05;;;;;;;7.27;5.60;;;10.70;99.90;;;;;;5071443;28;20737;-61
2022/01/01 07:41:30;;;;;;;6.97;5.50;;;11.30;99.90;;;;;;5071809;28;20220;-60
2022/01/01 07:43:56;;;;;;;6.70;5.30;;;11.40;99.90;;;;;;5071334;28;20225;-60
2022/01/01 07:46:21;;;;;;;9.33;8.13;;;11.40;99.90;;;;;;5070429;28;20233;-60
2022/01/01 07:48:47;;;;;;;7.83;6.67;;;11.50;99.90;;;;;;5071168;28;20590;-59
2022/01/01 07:51:12;;;;;;;6.77;5.90;;;11.60;99.90;;;;;;5071687;28;20610;-60
2022/01/01 07:53:38;;;;;;;6.67;5.77;;;11.80;99.90;;;;;;5071470;28;20183;-59
2022/01/01 07:56:04;;;;;;;7.27;5.60;;;11.80;99.90;;;;;;5071337;28;20233;-58
2022/01/01 07:58:31;;;;;;;7.07;5.50;;;11.70;99.90;;;;;;5071368;28;20194;-57
2022/01/01 08:00:57;;;;;;;5.93;5.03;;;11.80;99.90;;;;;;5071518;28;20643;-56
2022/01/01 08:03:22;;;;;;;6.57;5.20;;;11.80;99.90;;;;;;5071750;28;20189;-60
2022/01/01 08:05:48;;;;;;;6.23;5.07;;;11.90;99.90;;;;;;5071068;28;20210;-59
2022/01/01 08:08:13;;;;;;;5.97;5.33;;;12.00;99.90;;;;;;5071432;28;20198;-58
2022/01/01 08:10:39;;;;;;;6.03;5.30;;;12.40;99.90;;;;;;5071249;28;20177;-61
2022/01/01 08:13:07;;;;;;;7.13;5.73;;;12.10;99.90;;;;;;5071422;28;20175;-61
2022/01/01 08:15:32;;;;;;;7.13;5.83;;;12.20;99.90;;;;;;5075096;28;20174;-56
2022/01/01 08:17:58;;;;;;;8.10;6.13;;;12.00;99.90;;;;;;5075224;28;20666;-59
2022/01/01 08:20:23;;;;;;;7.63;6.00;;;11.70;99.90;;;;;;5075135;28;20268;-62
2022/01/01 08:22:49;;;;;;;6.07;5.37;;;12.00;99.90;;;;;;5075385;28;20209;-63
2022/01/01 08:25:16;;;;;;;6.60;5.87;;;11.80;99.90;;;;;;5074631;28;20205;-62
2022/01/01 08:27:42;;;;;;;6.30;5.53;;;11.70;99.90;;;;;;5074932;28;20642;-59
2022/01/01 08:30:08;;;;;;;9.33;6.13;;;11.80;99.90;;;;;;5075091;28;20206;-62
2022/01/01 08:32:34;;;;;;;6.87;5.67;;;11.90;99.90;;;;;;5074870;28;20266;-61
2022/01/01 08:34:59;;;;;;;7.50;5.87;;;12.20;99.90;;;;;;5074727;28;20599;-61
2022/01/01 08:37:25;;;;;;;6.47;5.77;;;11.90;99.90;;;;;;5074378;28;20225;-61
2022/01/01 08:39:51;;;;;;;8.67;5.87;;;11.80;99.90;;;;;;5075005;28;20582;-61
2022/01/01 08:42:16;;;;;;;7.03;5.83;;;11.20;99.90;;;;;;5074517;28;20524;-59
2022/01/01 08:44:43;;;;;;;7.73;5.97;;;11.50;99.90;;;;;;5074571;28;20225;-61
2022/01/01 08:47:09;;;;;;;6.37;5.63;;;11.80;99.90;;;;;;5074515;28;20812;-60
2022/01/01 08:49:34;;;;;;;6.57;5.77;;;12.00;99.90;;;;;;5074719;28;20179;-59
2022/01/01 08:52:00;;;;;;;7.40;5.77;;;11.90;99.90;;;;;;5074657;28;20175;-63
2022/01/01 08:54:26;;;;;;;8.23;5.67;;;12.40;99.90;;;;;;5068801;28;20647;-63
2022/01/01 08:56:51;;;;;;;7.83;5.93;;;11.90;99.90;;;;;;5072428;28;20674;-61
2022/01/01 08:59:17;;;;;;;8.40;6.20;;;12.60;99.90;;;;;;5044876;28;20191;-62
2022/01/01 09:01:43;;;;;;;7.67;5.47;;;12.20;99.90;;;;;;5045213;28;20628;-60
2022/01/01 09:04:09;;;;;;;6.33;5.27;;;12.30;99.90;;;;;;5044135;28;20652;-62
2022/01/01 09:06:34;;;;;;;6.77;5.40;;;12.40;99.90;;;;;;5042642;28;20203;-64
2022/01/01 09:09:00;;;;;;;7.43;5.60;;;11.70;99.90;;;;;;5009228;28;20222;-57
2022/01/01 09:11:26;;;;;;;7.03;5.30;;;11.80;99.90;;;;;;5043259;28;20667;-62
2022/01/01 09:13:51;;;;;;;7.07;5.90;;;12.20;99.90;;;;;;5044578;28;20179;-63
2022/01/01 09:16:18;;;;;;;8.77;5.90;;;12.20;99.90;;;;;;5042610;28;20227;-64
2022/01/01 09:18:46;;;;;;;8.03;6.07;;;12.30;99.90;;;;;;5026008;28;20198;-60
2022/01/01 09:21:12;;;;;;;7.60;6.10;;;11.30;99.90;;;;;;5039090;28;20238;-63
2022/01/01 09:23:38;;;;;;;7.57;5.53;;;11.90;99.90;;;;;;5034191;28;20199;-63
2022/01/01 09:26:04;;;;;;;8.00;5.60;;;11.90;99.90;;;;;;5032466;28;20199;-63
2022/01/01 09:28:31;;;;;;;6.53;5.37;;;11.40;99.90;;;;;;5034039;28;20207;-61
2022/01/01 09:30:58;;;;;;;9.20;5.90;;;11.40;99.90;;;;;;5044211;28;20270;-63
2022/01/01 09:33:29;;;;;;;8.93;5.77;;;11.90;99.90;;;;;;5044634;28;20189;-61
2022/01/01 09:35:55;;;;;;;6.50;5.40;;;12.10;99.90;;;;;;5044383;28;20210;-63
2022/01/01 09:38:20;;;;;;;7.00;5.77;;;11.40;99.90;;;;;;5042519;28;20667;-63
2022/01/01 09:40:48;;;;;;;7.33;5.80;;;11.80;99.90;;;;;;5044445;28;20191;-63
2022/01/01 09:43:14;;;;;;;8.60;6.00;;;11.20;99.90;;;;;;5042225;28;20171;-62
2022/01/01 09:45:41;;;;;;;7.30;6.00;;;11.60;99.90;;;;;;5048370;28;20217;-61
2022/01/01 09:48:07;;;;;;;7.53;5.67;;;11.50;99.90;;;;;;5053512;28;20660;-59
2022/01/01 09:50:34;;;;;;;8.43;6.00;;;11.10;99.90;;;;;;5053354;28;20178;-62
2022/01/01 09:53:00;;;;;;;6.50;5.80;;;11.50;99.90;;;;;;5047595;28;20175;-60
2022/01/01 09:55:25;;;;;;;8.17;6.23;;;11.40;99.90;;;;;;5043164;28;20194;-63
2022/01/01 09:57:51;;;;;;;7.30;5.47;;;11.70;99.90;;;;;;5041059;28;20227;-59
2022/01/01 10:00:17;;;;;;;7.40;6.23;;;11.90;99.90;;;;;;5042911;28;20184;-61
2022/01/01 10:02:42;;;;;;;6.13;5.10;;;12.60;99.90;;;;;;5040383;28;20184;-63
2022/01/01 10:05:08;;;;;;;6.83;5.57;;;12.40;99.90;;;;;;5042172;28;20303;-59
2022/01/01 10:07:34;;;;;;;5.87;5.27;;;12.80;99.90;;;;;;5040847;28;20192;-60
2022/01/01 10:10:19;;;;;;;7.60;5.83;;;13.70;99.90;;;;;;5042776;28;20276;-62
2022/01/01 10:12:45;;;;;;;7.23;5.20;;;13.30;99.90;;;;;;5042655;28;20175;-62
2022/01/01 10:15:13;;;;;;;6.43;5.07;;;13.40;99.90;;;;;;5040423;28;20177;-65
2022/01/01 10:17:39;;;;;;;7.17;5.33;;;13.40;99.90;;;;;;5039916;28;20601;-58
2022/01/01 10:20:05;;;;;;;5.83;5.23;;;13.30;99.90;;;;;;5041958;28;20193;-62
2022/01/01 10:22:31;;;;;;;7.27;5.43;;;13.30;99.90;;;;;;5040237;28;20180;-60
2022/01/01 10:28:16;;;;;;;7.80;5.33;;;13.40;99.90;;;;;;5041110;28;20565;-57
2022/01/01 10:30:43;;;;;;;5.57;4.90;;;15.90;99.90;;;;;;5023253;28;20265;-61
2022/01/01 10:33:13;;;;;;;5.43;4.43;;;13.80;99.90;;;;;;5041971;28;20628;-60
2022/01/01 10:35:56;;;;;;;5.80;4.60;;;14.30;99.90;;;;;;5039513;28;20202;-62
2022/01/01 10:38:27;;;;;;;7.10;5.20;;;15.50;99.90;;;;;;5024220;28;20286;-65
2022/01/01 10:41:08;;;;;;;6.00;4.57;;;16.40;99.90;;;;;;5041701;28;20180;-61
2022/01/01 10:43:42;;;;;;;5.03;4.40;;;16.90;99.90;;;;;;5038922;28;20233;-60
2022/01/01 10:46:14;;;;;;;5.37;4.50;;;17.30;99.90;;;;;;5023289;28;20210;-61
2022/01/01 10:51:08;;;;;;;4.87;4.37;;;17.20;99.90;;;;;;5044709;28;20185;-59
2022/01/01 10:53:35;;;;;;;4.83;4.23;;;18.40;99.90;;;;;;5045518;28;20652;-59
2022/01/01 10:56:03;;;;;;;7.77;4.73;;;15.50;99.90;;;;;;5044320;28;20765;-61
2022/01/01 10:58:34;;;;;;;6.17;5.10;;;14.90;99.90;;;;;;5039992;28;20202;-62
2022/01/01 11:01:05;;;;;;;6.20;4.90;;;14.70;99.90;;;;;;5042277;28;20183;-63
2022/01/01 11:03:41;;;;;;;5.53;4.83;;;14.80;99.90;;;;;;5038146;28;20191;-61
2022/01/01 11:06:17;;;;;;;4.93;4.47;;;15.10;99.90;;;;;;5041804;28;20560;-63
2022/01/01 11:08:46;;;;;;;4.60;3.97;;;15.40;99.90;;;;;;5042028;28;20195;-61
2022/01/01 11:11:15;;;;;;;4.83;4.27;;;16.00;99.90;;;;;;5047588;28;20512;-65
2022/01/01 11:13:41;;;;;;;6.20;4.35;;;20.20;99.90;;;;;;5031033;28;20176;-64
2022/01/01 11:16:08;;;;;;;4.20;3.80;;;20.70;99.90;;;;;;5041887;28;20175;-63
2022/01/01 11:18:35;;;;;;;5.32;4.10;;;23.40;99.90;;;;;;5024438;28;20283;-64
2022/01/01 11:21:02;;;;;;;3.95;3.55;;;24.90;99.90;;;;;;5024876;28;20178;-63
2022/01/01 11:23:28;;;;;;;4.88;3.53;;;25.40;99.70;;;;;;5022455;28;20545;-64
2022/01/01 11:25:56;;;;;;;3.90;3.50;;;26.00;98.80;;;;;;5040497;28;20203;-64
2022/01/01 11:28:25;;;;;;;5.13;3.90;;;26.90;98.00;;;;;;5041886;28;20564;-64
2022/01/01 11:30:57;;;;;;;4.60;3.60;;;28.60;94.80;;;;;;5039910;28;20677;-63
2022/01/01 11:33:54;;;;;;;3.30;3.00;;;30.40;92.00;;;;;;5041863;28;20191;-64
2022/01/01 11:36:23;;;;;;;4.05;3.08;;;31.90;88.80;;;;;;5042622;28;20203;-63
2022/01/01 11:38:49;;;;;;;3.97;3.53;;;32.50;84.50;;;;;;5025411;28;20208;-62
2022/01/01 11:41:19;;;;;;;4.28;3.47;;;32.90;80.60;;;;;;5038766;28;20225;-64
2022/01/01 11:43:53;;;;;;;4.43;4.03;;;33.30;76.60;;;;;;5041570;28;20233;-62
2022/01/01 11:46:21;;;;;;;4.03;3.47;;;32.90;76.20;;;;;;5039501;28;20222;-61
2022/01/01 11:48:55;;;;;;;4.03;3.63;;;32.00;79.00;;;;;;5036729;28;20191;-62
2022/01/01 11:51:31;;;;;;;3.78;3.45;;;31.00;79.50;;;;;;5037593;28;20170;-63
2022/01/01 11:54:08;;;;;;;5.30;3.80;;;30.90;77.40;;;;;;5040534;28;20194;-56
2022/01/01 11:56:46;;;;;;;3.80;3.50;;;31.40;77.80;;;;;;5040898;28;20171;-61
2022/01/01 11:59:40;;;;;;;4.03;3.63;;;31.50;75.80;;;;;;5036862;28;20243;-62
2022/01/01 12:02:18;;;;;;;3.97;3.67;;;31.60;76.50;;;;;;5037434;28;20175;-60
2022/01/01 12:04:45;;;;;;;5.32;3.70;;;30.90;77.60;;;;;;5042983;28;20241;-63
2022/01/01 12:07:29;;;;;;;4.13;3.55;;;29.80;78.30;;;;;;5040019;28;20183;-60
2022/01/01 12:10:07;;;;;;;4.03;3.55;;;29.80;79.20;;;;;;5042601;28;20179;-61
2022/01/01 12:12:49;;;;;;;3.53;3.22;;;29.20;79.00;;;;;;5040254;28;20183;-64
2022/01/01 12:15:24;;;;;;;3.42;3.13;;;28.80;79.80;;;;;;5050849;28;20703;-62
2022/01/01 12:17:53;;;;;;;4.30;3.30;;;28.90;80.40;;;;;;5050045;28;20191;-64
2022/01/01 12:20:22;;;;;;;3.55;3.25;;;29.00;78.70;;;;;;5051074;28;20179;-61
2022/01/01 12:22:50;;;;;;;3.60;3.30;;;29.40;78.00;;;;;;5049863;28;20179;-65
2022/01/01 12:25:16;;;;;;;3.35;3.05;;;29.30;78.50;;;;;;5048927;28;20195;-64
2022/01/01 12:27:48;;;;;;;4.43;3.40;;;28.50;79.20;;;;;;5049680;28;20187;-61
2022/01/01 12:30:14;;;;;;;3.63;3.25;;;28.20;78.80;;;;;;5050286;28;20222;-60
2022/01/01 12:32:44;;;;;;;3.42;3.13;;;27.40;81.80;;;;;;5050603;28;20203;-62
2022/01/01 12:35:16;;;;;;;3.55;3.20;;;26.80;82.70;;;;;;5050178;28;20167;-62
2022/01/01 12:40:12;;;;;;;3.50;3.20;;;27.00;80.60;;;;;;5069451;28;20203;-57
2022/01/01 12:42:44;;;;;;;3.78;3.47;;;26.00;82.50;;;;;;5073589;28;20707;-58
2022/01/01 12:45:10;;;;;;;4.28;3.80;;;24.60;84.70;;;;;;5082224;28;20743;-56
2022/01/01 12:47:36;;;;;;;3.55;3.10;;;22.10;89.20;;;;;;5090215;28;20204;-57
2022/01/01 12:50:05;;;;;;;5.28;3.17;;;22.40;90.00;;;;;;5103674;28;20170;-57
2022/01/01 12:52:31;;;;;;;4.97;3.15;;;21.90;91.20;;;;;;5102378;28;20170;-56
2022/01/01 12:54:58;;;;;;;3.70;3.05;;;21.40;93.10;;;;;;5102471;28;20195;-55
2022/01/01 12:57:24;;;;;;;3.60;3.30;;;22.10;93.40;;;;;;5078689;28;20194;-58
2022/01/01 12:59:50;;;;;;;3.30;3.00;;;21.90;93.50;;;;;;5080843;28;20179;-59
2022/01/01 13:02:15;;;;;;;3.72;3.08;;;22.40;92.90;;;;;;5084757;28;20179;-57
2022/01/01 13:04:41;;;;;;;3.58;3.20;;;23.00;92.60;;;;;;5084996;28;20631;-59
2022/01/01 13:07:07;;;;;;;5.03;2.92;;;22.70;92.10;;;;;;5084736;28;20170;-57
2022/01/01 13:09:33;;;;;;;4.22;3.03;;;22.00;92.80;;;;;;5084636;28;20690;-57
2022/01/01 13:12:05;;;;;;;4.03;3.42;;;21.40;93.50;;;;;;5085072;28;20167;-56
2022/01/01 13:14:39;;;;;;;6.10;3.45;;;21.00;93.70;;;;;;5081973;28;20238;-56
2022/01/01 13:17:06;;;;;;;3.67;3.00;;;20.20;95.10;;;;;;5086886;28;20198;-57
2022/01/01 13:19:33;;;;;;;5.13;3.25;;;19.60;96.10;;;;;;5088044;28;20428;-57
2022/01/01 13:21:59;;;;;;;5.22;3.58;;;19.20;97.20;;;;;;5086104;28;20169;-55
2022/01/01 13:24:28;;;;;;;3.97;3.20;;;18.70;97.80;;;;;;5086176;28;20188;-51
2022/01/01 13:26:54;;;;;;;4.17;3.30;;;17.90;99.60;;;;;;5085916;28;20182;-50
2022/01/01 13:29:20;;;;;;;5.00;3.57;;;17.30;99.90;;;;;;5086216;28;20195;-52
2022/01/01 13:31:47;;;;;;;4.67;3.50;;;17.00;99.90;;;;;;5087214;28;20224;-52